Saint-Bruno-De-Guigues, Canada
Current Conditions -  °F | °C
As of 8:27 AM on Sunday 23 Nov 2014 (Local Time) from CYXR Reporting Station
Haze Haze  
Wind Chill: 24°   Ceiling: 1100
Heat Index: 30°   Visibility: 3mi
Dew Point: 30°   Wind: 6mph
Humidity: 100%   Direction: 170°S
Pressure: 29.85"   Gusts: NA
Location:  47.47°N, 79.43°W
Report Text: CYXR 231327Z AUTO 17005KT 3SM BR OVC011 M01/M01 A2985 RMK SLP122
Loading
Personal Weather Stations






























Interactive Weather Map New forecast layout! Learn more

10-Day Weather Forecast

Advertisements
Track Severe Weather on mobile